KFDK

Frederick Municipal Airport

Frederick, Maryland, USA
METAR KFDK 231947Z 29014G22KT 10SM SCT070 21/01 A2998
Observed Flight Rules
Oct-23 @ 19:47 UTC (44 minutes ago) Visual Flight Rules
Wind Visibility Clouds
290° at 14 knots
 Gusting to 22 knots
10 miles
  • Scattered at 7,000' AGL
Temperatures Readings
Current 21°C / 70°F
Dewpoint 1°C / 34°F
Humidity 27%
Altimeter 29.98" Hg
Pressure 1015 hPa
Elevation 92
METAR KFDK 231947Z 29014G22KT 10SM SCT070 21/01 A2998
Observed Flight Rules
Oct-23 @ 19:47 UTC
(44 minutes ago)
VFR
Wind Visibility
290° at 14 knots
 Gusting to 22 knots
10 miles
Clouds
  • Scattered at 7,000' AGL
Temperature Dewpoint
21°C / 70°F 1°C / 34°F
Humidity Altimeter Pressure
27% 29.98" Hg 1015 hPa